Time;durP1;ratioP1;P1;durP2;ratioP2;P2;SDS_P1;SDS_P2;PMS_P1;PMS_P2;Temp;Humidity;BMP_temperature;BMP_pressure;BME280_temperature;BME280_humidity;BME280_pressure;Samples;Min_cycle;Max_cycle;Signal;HPM_P1;HPM_P2
2021/08/06 00:01:49;;;;;;;4.50;1.90;;;20.10;45.20;;;;;;5053192;28;20250;-83
2021/08/06 00:04:14;;;;;;;3.30;1.87;;;19.90;49.40;;;;;;5053144;28;20628;-82
2021/08/06 00:06:41;;;;;;;2.57;1.60;;;19.90;55.90;;;;;;5051873;28;20531;-79
2021/08/06 00:09:09;;;;;;;3.77;1.67;;;19.90;60.80;;;;;;5053829;28;20177;-80
2021/08/06 00:11:35;;;;;;;2.40;1.77;;;19.90;60.60;;;;;;5055401;28;20709;-78
2021/08/06 00:14:01;;;;;;;2.53;1.63;;;20.00;59.40;;;;;;5054903;28;20212;-80
2021/08/06 00:16:28;;;;;;;2.90;1.70;;;19.90;59.40;;;;;;5055738;28;20180;-81
2021/08/06 00:18:54;;;;;;;3.43;1.70;;;19.80;65.80;;;;;;5037065;28;20183;-78
2021/08/06 00:21:20;;;;;;;3.63;2.20;;;19.60;85.00;;;;;;5053657;28;20616;-78
2021/08/06 00:23:46;;;;;;;2.67;1.60;;;19.50;93.50;;;;;;5053747;28;20169;-81
2021/08/06 00:26:15;;;;;;;2.77;1.70;;;19.30;96.40;;;;;;5055368;28;20198;-77
2021/08/06 00:28:42;;;;;;;3.57;1.77;;;19.20;97.90;;;;;;5057497;28;20249;-79
2021/08/06 00:31:08;;;;;;;3.10;2.20;;;19.20;98.20;;;;;;5058302;28;20170;-79
2021/08/06 00:33:33;;;;;;;3.00;2.10;;;19.20;99.10;;;;;;5058050;28;20213;-82
2021/08/06 00:35:59;;;;;;;3.03;2.20;;;19.20;99.70;;;;;;5057293;28;20641;-80
2021/08/06 00:38:25;;;;;;;2.87;1.90;;;19.30;99.70;;;;;;5056970;28;20209;-83
2021/08/06 00:40:51;;;;;;;2.77;1.90;;;19.20;99.90;;;;;;5056882;28;20252;-81
2021/08/06 00:43:17;;;;;;;3.93;2.00;;;19.20;99.90;;;;;;5056680;28;20534;-81
2021/08/06 00:45:43;;;;;;;3.10;2.03;;;19.30;99.90;;;;;;5041195;28;20172;-77
2021/08/06 00:48:09;;;;;;;3.17;2.07;;;19.30;99.60;;;;;;5073571;28;20205;-77
2021/08/06 00:50:35;;;;;;;3.40;2.03;;;19.30;99.20;;;;;;5070443;28;20175;-81
2021/08/06 00:53:01;;;;;;;4.30;1.90;;;19.30;98.80;;;;;;5056797;28;20221;-82
2021/08/06 00:55:27;;;;;;;3.40;1.93;;;19.30;98.30;;;;;;5056555;28;20213;-80
2021/08/06 00:57:52;;;;;;;3.30;2.00;;;19.40;97.70;;;;;;5056337;28;20175;-83
2021/08/06 01:00:18;;;;;;;2.37;1.77;;;19.40;96.90;;;;;;5056432;28;20165;-79
2021/08/06 01:02:50;;;;;;;3.57;2.10;;;19.40;96.70;;;;;;5056399;28;20162;-76
2021/08/06 01:05:18;;;;;;;2.87;1.80;;;19.40;96.10;;;;;;5055976;28;20652;-82
2021/08/06 01:08:03;;;;;;;2.73;1.80;;;19.50;95.90;;;;;;5056281;28;20623;-81
2021/08/06 01:10:55;;;;;;;2.63;1.80;;;19.30;96.10;;;;;;5056419;28;20170;-81
2021/08/06 01:13:36;;;;;;;3.90;1.77;;;19.30;96.80;;;;;;5056391;28;20202;-77
2021/08/06 01:16:05;;;;;;;2.10;1.70;;;19.30;97.70;;;;;;5056943;28;20178;-77
2021/08/06 01:18:32;;;;;;;3.13;1.90;;;19.30;98.40;;;;;;5058712;28;20178;-77
2021/08/06 01:21:04;;;;;;;3.00;1.80;;;19.30;99.30;;;;;;5060825;28;20174;-78
2021/08/06 01:23:37;;;;;;;4.40;1.70;;;19.30;99.50;;;;;;5039770;28;20518;-82
2021/08/06 01:26:04;;;;;;;4.27;2.00;;;19.20;99.70;;;;;;5056230;28;20189;-78
2021/08/06 01:28:34;;;;;;;3.20;2.20;;;19.20;99.90;;;;;;5056506;28;20159;-78
2021/08/06 01:31:00;;;;;;;3.33;1.87;;;19.30;99.70;;;;;;5055802;28;20541;-79
2021/08/06 01:33:26;;;;;;;5.67;2.00;;;19.00;99.90;;;;;;5055578;28;20705;-79
2021/08/06 01:35:52;;;;;;;4.17;2.07;;;19.10;99.90;;;;;;5055394;28;20198;-77
2021/08/06 01:38:19;;;;;;;2.60;1.80;;;19.00;99.90;;;;;;5056228;28;20659;-77
2021/08/06 01:40:50;;;;;;;3.67;1.90;;;18.90;99.90;;;;;;5037439;28;20179;-77
2021/08/06 01:43:28;;;;;;;3.23;1.87;;;18.80;99.90;;;;;;5059018;28;20254;-79
2021/08/06 01:46:07;;;;;;;4.43;2.00;;;18.70;99.90;;;;;;5068556;28;20672;-78
2021/08/06 01:48:37;;;;;;;3.10;2.00;;;18.60;99.90;;;;;;5068062;28;20711;-78
2021/08/06 01:51:08;;;;;;;2.80;1.90;;;18.60;99.90;;;;;;5048992;28;20672;-81
2021/08/06 01:53:42;;;;;;;2.90;2.00;;;18.60;99.90;;;;;;5055412;28;20205;-82
2021/08/06 01:56:12;;;;;;;4.53;2.00;;;18.60;99.90;;;;;;5056014;28;20177;-81
2021/08/06 01:58:40;;;;;;;3.40;2.00;;;18.60;99.90;;;;;;5056031;28;20166;-78
2021/08/06 02:01:12;;;;;;;3.03;2.10;;;18.70;99.90;;;;;;5055904;28;20179;-81
2021/08/06 02:03:38;;;;;;;2.30;1.70;;;18.60;99.90;;;;;;5056172;28;20165;-79
2021/08/06 02:06:04;;;;;;;4.00;2.30;;;18.60;99.90;;;;;;5055028;28;20167;-78
2021/08/06 02:08:29;;;;;;;3.13;1.87;;;18.60;99.90;;;;;;5054754;28;20479;-79
2021/08/06 02:10:55;;;;;;;3.30;2.10;;;18.60;99.90;;;;;;5055064;28;20166;-78
2021/08/06 02:13:21;;;;;;;4.20;2.20;;;18.60;99.90;;;;;;5060163;28;20197;-77
2021/08/06 02:15:48;;;;;;;3.47;2.33;;;18.60;99.90;;;;;;5062049;28;20162;-80
2021/08/06 02:18:22;;;;;;;3.47;2.13;;;18.60;99.90;;;;;;5061267;28;20272;-77
2021/08/06 02:20:50;;;;;;;5.00;2.30;;;18.60;99.90;;;;;;5061179;28;20292;-78
2021/08/06 02:23:16;;;;;;;4.40;2.30;;;18.70;99.90;;;;;;5058254;28;20181;-79
2021/08/06 02:25:44;;;;;;;3.90;2.50;;;18.80;99.90;;;;;;5054881;28;20555;-78
2021/08/06 02:28:10;;;;;;;2.90;2.00;;;18.80;99.90;;;;;;5054699;28;20183;-80
2021/08/06 02:30:37;;;;;;;4.10;2.00;;;18.80;99.90;;;;;;5054634;28;20252;-78
2021/08/06 02:33:03;;;;;;;3.70;2.13;;;18.60;99.90;;;;;;5054421;28;20208;-81
2021/08/06 02:35:29;;;;;;;4.00;2.10;;;18.40;99.90;;;;;;5054696;28;20243;-79
2021/08/06 02:37:55;;;;;;;2.20;2.00;;;18.30;99.90;;;;;;5054520;28;20605;-81
2021/08/06 02:40:21;;;;;;;2.97;1.93;;;18.40;99.90;;;;;;5036896;28;20220;-79
2021/08/06 02:42:48;;;;;;;4.03;2.00;;;18.30;99.90;;;;;;5054863;28;20167;-81
2021/08/06 02:45:14;;;;;;;3.53;2.17;;;18.30;99.90;;;;;;5054771;28;20170;-81
2021/08/06 02:47:40;;;;;;;3.83;2.00;;;18.30;99.90;;;;;;5037076;28;20180;-82
2021/08/06 02:50:06;;;;;;;4.20;2.43;;;18.40;99.90;;;;;;5053921;28;20181;-82
2021/08/06 02:52:32;;;;;;;3.03;1.87;;;18.40;99.90;;;;;;5054768;28;20204;-82
2021/08/06 02:54:58;;;;;;;4.57;2.23;;;18.30;99.90;;;;;;5054273;28;20184;-82
2021/08/06 02:57:23;;;;;;;3.77;2.47;;;18.40;99.90;;;;;;5055137;28;20166;-81
2021/08/06 02:59:51;;;;;;;4.07;2.20;;;18.30;99.90;;;;;;5054467;28;20320;-81
2021/08/06 03:02:17;;;;;;;3.83;2.60;;;18.40;99.90;;;;;;5054556;28;20166;-81
2021/08/06 03:04:42;;;;;;;3.47;2.17;;;18.40;99.90;;;;;;5054337;28;20166;-81
2021/08/06 03:07:08;;;;;;;4.43;2.53;;;18.40;99.90;;;;;;5054639;28;20189;-82
2021/08/06 03:09:34;;;;;;;6.17;2.43;;;18.50;99.90;;;;;;5054631;28;20662;-82
2021/08/06 03:12:00;;;;;;;4.13;2.50;;;18.50;99.90;;;;;;5036459;28;20180;-82
2021/08/06 03:14:25;;;;;;;6.00;3.07;;;18.50;99.90;;;;;;5054156;28;20208;-80
2021/08/06 03:16:51;;;;;;;4.93;2.80;;;18.50;99.90;;;;;;5036687;28;20175;-81
2021/08/06 03:19:17;;;;;;;5.97;3.23;;;18.60;99.90;;;;;;5036403;28;20179;-80
2021/08/06 03:21:43;;;;;;;2.77;1.80;;;18.60;99.90;;;;;;5053765;28;20209;-80
2021/08/06 03:24:08;;;;;;;4.70;2.30;;;18.30;99.90;;;;;;5054007;28;20176;-81
2021/08/06 03:26:34;;;;;;;4.43;2.10;;;17.90;99.90;;;;;;5054097;28;20684;-82
2021/08/06 03:28:59;;;;;;;2.80;2.13;;;17.80;99.90;;;;;;5053925;28;20226;-80
2021/08/06 03:31:25;;;;;;;3.83;2.10;;;17.60;99.90;;;;;;5054052;28;20278;-82
2021/08/06 03:33:51;;;;;;;3.07;2.30;;;17.50;99.90;;;;;;5053878;28;20209;-82
2021/08/06 03:36:16;;;;;;;2.47;2.17;;;17.50;99.90;;;;;;5053713;28;20177;-82
2021/08/06 03:38:43;;;;;;;2.67;2.20;;;17.40;99.90;;;;;;5036632;28;20170;-81
2021/08/06 03:41:09;;;;;;;4.30;2.43;;;17.50;99.90;;;;;;5054174;28;20537;-83
2021/08/06 03:43:35;;;;;;;2.97;2.50;;;17.60;99.90;;;;;;5053706;28;20165;-83
2021/08/06 03:46:01;;;;;;;3.60;2.30;;;17.60;99.90;;;;;;5053717;28;20656;-82
2021/08/06 03:48:26;;;;;;;3.87;2.33;;;17.60;99.90;;;;;;5058957;28;20170;-82
2021/08/06 03:50:52;;;;;;;3.00;2.40;;;17.60;99.90;;;;;;5057113;28;20279;-81
2021/08/06 03:53:18;;;;;;;2.47;2.00;;;17.70;99.90;;;;;;5043532;28;20304;-79
2021/08/06 03:55:44;;;;;;;3.80;2.30;;;17.60;99.90;;;;;;5058676;28;20171;-82
2021/08/06 03:58:09;;;;;;;2.50;1.77;;;17.60;99.90;;;;;;5054080;28;20173;-80
2021/08/06 04:00:39;;;;;;;5.20;2.07;;;17.60;99.90;;;;;;5056498;28;20196;-81
2021/08/06 04:03:08;;;;;;;2.70;2.00;;;17.50;99.90;;;;;;5059886;28;20188;-82
2021/08/06 04:05:34;;;;;;;2.43;1.93;;;17.60;99.90;;;;;;5057019;28;20262;-82
2021/08/06 04:08:07;;;;;;;2.40;1.80;;;17.60;99.90;;;;;;5058552;28;20192;-82
2021/08/06 04:10:33;;;;;;;2.50;1.70;;;17.50;99.90;;;;;;5059428;28;20660;-81
2021/08/06 04:12:59;;;;;;;2.10;1.60;;;17.50;99.90;;;;;;5058804;28;20759;-81
2021/08/06 04:15:25;;;;;;;4.43;1.70;;;17.50;99.90;;;;;;5041602;28;20208;-83
2021/08/06 04:17:50;;;;;;;4.33;1.87;;;17.50;99.90;;;;;;5056217;28;20208;-84
2021/08/06 04:20:16;;;;;;;2.30;1.50;;;17.50;99.90;;;;;;5039429;28;20260;-83
2021/08/06 04:22:42;;;;;;;3.30;1.90;;;17.50;99.90;;;;;;5057583;28;20215;-82
2021/08/06 04:25:09;;;;;;;3.20;2.07;;;17.50;99.90;;;;;;5056862;28;20189;-78
2021/08/06 04:27:35;;;;;;;3.63;2.20;;;17.50;99.90;;;;;;5057351;28;20171;-81
2021/08/06 04:30:01;;;;;;;4.03;2.80;;;17.50;99.90;;;;;;5057075;28;20587;-81
2021/08/06 04:32:27;;;;;;;4.13;2.40;;;17.50;99.90;;;;;;5057233;28;20193;-83
2021/08/06 04:34:53;;;;;;;6.53;2.57;;;17.50;99.90;;;;;;5056903;28;20177;-82
2021/08/06 04:37:18;;;;;;;3.70;2.47;;;17.50;99.90;;;;;;5056877;28;20662;-81
2021/08/06 04:39:44;;;;;;;3.80;2.23;;;17.50;99.90;;;;;;5057270;28;20664;-83
2021/08/06 04:42:09;;;;;;;3.27;2.27;;;17.50;99.90;;;;;;5056814;28;20638;-81
2021/08/06 04:44:36;;;;;;;3.57;2.17;;;17.50;99.90;;;;;;5057631;28;20192;-82
2021/08/06 04:47:03;;;;;;;5.90;2.73;;;17.50;99.90;;;;;;5056668;28;20182;-82
2021/08/06 04:49:29;;;;;;;5.27;2.50;;;17.40;99.90;;;;;;5056756;28;20286;-82
2021/08/06 04:51:55;;;;;;;6.70;2.97;;;17.40;99.90;;;;;;5056705;28;20648;-83
2021/08/06 04:54:22;;;;;;;4.57;2.63;;;17.40;99.90;;;;;;5056622;28;20290;-83
2021/08/06 04:56:47;;;;;;;7.53;2.80;;;17.40;99.90;;;;;;5055525;28;20171;-80
2021/08/06 04:59:13;;;;;;;6.73;3.00;;;17.30;99.90;;;;;;5056855;28;20676;-83
2021/08/06 05:01:39;;;;;;;5.90;2.57;;;17.40;99.90;;;;;;5056916;28;20178;-81
2021/08/06 05:04:05;;;;;;;4.80;2.80;;;17.40;99.90;;;;;;5056626;28;20246;-82
2021/08/06 05:06:31;;;;;;;8.27;2.97;;;17.40;99.90;;;;;;5075134;28;20161;-78
2021/08/06 05:08:57;;;;;;;7.77;2.87;;;17.30;99.90;;;;;;5076455;28;20196;-81
2021/08/06 05:11:23;;;;;;;6.40;2.90;;;17.30;99.90;;;;;;5058389;28;20530;-81
2021/08/06 05:13:49;;;;;;;4.17;2.67;;;17.30;99.90;;;;;;5057601;28;20211;-80
2021/08/06 05:16:14;;;;;;;5.70;2.90;;;17.30;99.90;;;;;;5057140;28;20161;-82
2021/08/06 05:18:40;;;;;;;5.93;2.57;;;17.40;99.90;;;;;;5054675;28;20552;-80
2021/08/06 05:21:06;;;;;;;3.57;2.63;;;17.40;99.90;;;;;;5056365;28;20309;-81
2021/08/06 05:23:32;;;;;;;5.80;2.40;;;17.50;99.90;;;;;;5054828;28;20177;-81
2021/08/06 05:25:57;;;;;;;3.93;2.70;;;17.50;99.90;;;;;;5055895;28;20693;-83
2021/08/06 05:28:24;;;;;;;6.60;2.60;;;17.50;99.90;;;;;;5055741;28;20177;-82
2021/08/06 05:30:49;;;;;;;5.47;2.90;;;17.50;99.90;;;;;;5056288;28;20198;-82
2021/08/06 05:33:15;;;;;;;10.93;3.07;;;17.60;99.90;;;;;;5055284;28;20240;-82
2021/08/06 05:35:41;;;;;;;5.77;2.73;;;17.70;99.90;;;;;;5076739;28;20204;-77
2021/08/06 05:38:07;;;;;;;7.73;3.10;;;17.70;99.90;;;;;;5074526;28;20237;-78
2021/08/06 05:40:33;;;;;;;8.53;4.13;;;17.80;99.90;;;;;;5065285;28;20165;-82
2021/08/06 05:42:59;;;;;;;6.57;2.80;;;17.90;99.90;;;;;;5056726;28;20171;-81
2021/08/06 05:45:25;;;;;;;6.47;2.87;;;17.90;99.90;;;;;;5056933;28;20660;-82
2021/08/06 05:47:53;;;;;;;6.27;3.07;;;17.90;99.90;;;;;;5056150;28;20189;-79
2021/08/06 05:50:23;;;;;;;7.47;3.00;;;18.00;99.90;;;;;;5068613;28;20183;-78
2021/08/06 05:52:49;;;;;;;12.27;3.30;;;18.00;99.90;;;;;;5055604;28;20188;-82
2021/08/06 05:55:17;;;;;;;5.83;2.87;;;18.00;99.90;;;;;;5057006;28;20173;-82
2021/08/06 05:57:43;;;;;;;6.50;2.87;;;18.10;99.90;;;;;;5059718;28;20256;-81
2021/08/06 06:00:10;;;;;;;6.30;2.90;;;18.20;99.90;;;;;;5058504;28;20225;-81
2021/08/06 06:02:36;;;;;;;7.67;3.17;;;18.30;99.90;;;;;;5058072;28;20230;-82
2021/08/06 06:05:03;;;;;;;9.37;3.20;;;18.30;99.90;;;;;;5055513;28;20527;-77
2021/08/06 06:07:29;;;;;;;6.30;3.73;;;18.40;99.90;;;;;;5055781;28;20187;-83
2021/08/06 06:09:55;;;;;;;7.57;3.00;;;18.30;99.90;;;;;;5056537;28;20173;-80
2021/08/06 06:12:20;;;;;;;10.07;3.30;;;18.40;99.90;;;;;;5056771;28;20177;-79
2021/08/06 06:14:46;;;;;;;6.87;3.50;;;18.40;99.90;;;;;;5055236;28;20557;-80
2021/08/06 06:17:12;;;;;;;6.87;3.17;;;18.40;99.90;;;;;;5056029;28;20169;-81
2021/08/06 06:19:38;;;;;;;7.20;3.50;;;18.30;99.90;;;;;;5071700;28;20175;-77
2021/08/06 06:22:05;;;;;;;8.80;3.77;;;18.30;99.90;;;;;;5070698;28;20200;-78
2021/08/06 06:24:31;;;;;;;5.87;3.10;;;18.30;99.90;;;;;;5069055;28;20189;-78
2021/08/06 06:26:57;;;;;;;5.43;3.13;;;18.40;99.90;;;;;;5058389;28;20175;-78
2021/08/06 06:29:23;;;;;;;7.57;2.97;;;18.40;99.90;;;;;;5057520;28;20173;-79
2021/08/06 06:31:49;;;;;;;7.07;3.07;;;18.40;99.90;;;;;;5055767;28;20162;-81
2021/08/06 06:34:14;;;;;;;8.33;2.37;;;18.40;99.90;;;;;;5054923;28;20209;-79
2021/08/06 06:36:40;;;;;;;6.37;3.13;;;18.50;99.90;;;;;;5054657;28;20184;-78
2021/08/06 06:39:06;;;;;;;5.40;2.50;;;18.50;99.90;;;;;;5054855;28;20172;-80
2021/08/06 06:41:32;;;;;;;8.57;2.70;;;18.50;99.90;;;;;;5055257;28;20165;-78
2021/08/06 06:43:57;;;;;;;5.43;2.77;;;18.50;99.90;;;;;;5055403;28;20716;-81
2021/08/06 06:46:23;;;;;;;7.47;2.20;;;18.60;99.90;;;;;;5054699;28;20220;-78
2021/08/06 06:48:49;;;;;;;4.73;2.57;;;18.60;99.90;;;;;;5056612;28;20599;-77
2021/08/06 06:51:15;;;;;;;6.87;2.70;;;18.80;99.90;;;;;;5057563;28;20184;-80
2021/08/06 06:53:40;;;;;;;8.63;2.63;;;18.60;99.90;;;;;;5057543;28;20754;-80
2021/08/06 06:56:06;;;;;;;12.83;2.77;;;18.60;99.90;;;;;;5057247;28;20168;-79
2021/08/06 06:58:32;;;;;;;9.23;2.60;;;18.60;99.90;;;;;;5055873;28;20635;-79
2021/08/06 07:00:58;;;;;;;7.00;2.53;;;18.70;99.90;;;;;;5056916;28;20222;-81
2021/08/06 07:03:24;;;;;;;6.63;2.43;;;18.60;99.90;;;;;;5055655;28;20172;-83
2021/08/06 07:05:50;;;;;;;5.53;2.60;;;18.50;99.90;;;;;;5055183;28;20173;-83
2021/08/06 07:08:16;;;;;;;5.77;2.47;;;18.50;99.90;;;;;;5057766;28;20175;-84
2021/08/06 07:10:41;;;;;;;5.70;2.23;;;18.60;99.90;;;;;;5055979;28;20557;-81
2021/08/06 07:13:07;;;;;;;5.40;2.40;;;18.80;99.90;;;;;;5052658;28;20262;-83
2021/08/06 07:15:33;;;;;;;5.30;2.40;;;18.80;99.90;;;;;;5053908;28;20213;-83
2021/08/06 07:17:58;;;;;;;9.47;2.70;;;18.80;99.90;;;;;;5054209;28;20207;-83
2021/08/06 07:20:24;;;;;;;12.27;2.70;;;18.80;99.90;;;;;;5055778;28;20177;-80
2021/08/06 07:22:50;;;;;;;4.00;2.20;;;18.70;99.90;;;;;;5057617;28;20236;-82
2021/08/06 07:25:17;;;;;;;3.97;1.93;;;18.70;99.90;;;;;;5056039;28;20216;-80
2021/08/06 07:27:44;;;;;;;5.47;1.87;;;18.80;99.90;;;;;;5058508;28;20173;-80
2021/08/06 07:30:11;;;;;;;5.77;2.10;;;18.90;99.90;;;;;;5054112;28;20180;-83
2021/08/06 07:32:37;;;;;;;4.53;2.50;;;19.00;99.90;;;;;;5053965;28;20197;-83
2021/08/06 07:35:04;;;;;;;6.77;2.10;;;19.00;99.90;;;;;;5053385;28;20655;-80
2021/08/06 07:37:30;;;;;;;4.77;2.37;;;19.10;99.90;;;;;;5053616;28;20192;-82
2021/08/06 07:39:56;;;;;;;7.87;2.43;;;19.00;99.90;;;;;;5054021;28;20173;-78
2021/08/06 07:42:22;;;;;;;4.60;2.10;;;18.90;99.90;;;;;;5053473;28;20176;-82
2021/08/06 07:44:48;;;;;;;5.73;2.10;;;19.00;99.90;;;;;;5055185;28;20176;-82
2021/08/06 07:47:14;;;;;;;3.73;2.03;;;19.10;99.90;;;;;;5054090;28;20169;-83
2021/08/06 07:49:41;;;;;;;4.93;2.00;;;19.20;99.40;;;;;;5054174;28;20184;-84
2021/08/06 07:52:09;;;;;;;7.20;2.33;;;19.20;99.30;;;;;;5054149;28;20311;-82
2021/08/06 07:54:35;;;;;;;4.60;2.37;;;19.20;99.60;;;;;;5054219;28;20205;-80
2021/08/06 07:57:01;;;;;;;6.37;2.60;;;19.20;99.30;;;;;;5053441;28;20540;-80
2021/08/06 07:59:26;;;;;;;6.70;2.10;;;19.30;98.50;;;;;;5053165;28;20170;-79
2021/08/06 08:01:54;;;;;;;3.53;1.90;;;19.30;98.10;;;;;;5053512;28;20539;-81
2021/08/06 08:04:20;;;;;;;5.03;2.07;;;19.20;98.00;;;;;;5056036;28;20241;-83
2021/08/06 08:06:45;;;;;;;5.37;2.50;;;19.00;98.80;;;;;;5053167;28;20177;-82
2021/08/06 08:09:11;;;;;;;3.23;1.93;;;19.00;99.50;;;;;;5054055;28;20283;-82
2021/08/06 08:11:37;;;;;;;4.67;2.00;;;19.00;99.00;;;;;;5036190;28;20187;-82
2021/08/06 08:14:02;;;;;;;7.30;2.27;;;19.10;98.80;;;;;;5053731;28;20201;-82
2021/08/06 08:16:28;;;;;;;6.30;2.33;;;19.20;98.00;;;;;;5035867;28;20170;-81
2021/08/06 08:18:54;;;;;;;4.20;2.03;;;19.20;98.40;;;;;;5053647;28;20639;-81
2021/08/06 08:21:20;;;;;;;4.17;2.30;;;19.30;98.20;;;;;;5053600;28;20177;-81
2021/08/06 08:23:45;;;;;;;7.70;2.23;;;19.40;97.90;;;;;;5052916;28;20169;-83
2021/08/06 08:26:11;;;;;;;3.53;2.20;;;19.40;97.00;;;;;;5052735;28;20480;-82
2021/08/06 08:28:37;;;;;;;4.50;2.13;;;19.50;97.30;;;;;;5054348;28;20295;-83
2021/08/06 08:31:02;;;;;;;3.83;2.07;;;19.50;96.30;;;;;;5053297;28;20534;-79
2021/08/06 08:33:28;;;;;;;4.63;2.17;;;19.60;96.60;;;;;;5052212;28;20209;-82
2021/08/06 08:35:54;;;;;;;4.90;1.97;;;19.60;95.20;;;;;;5053084;28;20516;-82
2021/08/06 08:38:20;;;;;;;5.83;1.80;;;19.60;95.70;;;;;;5052581;28;20190;-81
2021/08/06 08:40:46;;;;;;;4.27;2.20;;;19.50;95.70;;;;;;5052405;28;20180;-82
2021/08/06 08:43:11;;;;;;;4.13;1.97;;;19.60;94.70;;;;;;5035773;28;20232;-81
2021/08/06 08:45:41;;;;;;;3.70;1.43;;;19.70;94.40;;;;;;5052838;28;20179;-80
2021/08/06 08:48:11;;;;;;;5.67;2.40;;;19.60;93.50;;;;;;5056167;28;20177;-82
2021/08/06 08:50:39;;;;;;;5.13;1.97;;;19.60;94.60;;;;;;5056781;28;20178;-81
2021/08/06 08:53:05;;;;;;;9.53;1.80;;;19.50;94.90;;;;;;5056441;28;20202;-83
2021/08/06 08:55:31;;;;;;;3.53;1.83;;;19.60;94.60;;;;;;5055812;28;20185;-82
2021/08/06 08:57:57;;;;;;;4.40;1.80;;;19.50;94.70;;;;;;5056043;28;20173;-82
2021/08/06 09:00:23;;;;;;;5.00;1.90;;;19.60;94.20;;;;;;5056111;28;20171;-82
2021/08/06 09:02:48;;;;;;;3.80;1.70;;;19.60;94.50;;;;;;5055984;28;20171;-81
2021/08/06 09:05:16;;;;;;;3.67;1.80;;;19.70;94.60;;;;;;5056171;28;20173;-83
2021/08/06 09:07:43;;;;;;;11.93;8.17;;;19.70;93.40;;;;;;5056230;28;20602;-77
2021/08/06 09:10:21;;;;;;;4.47;2.13;;;19.70;93.70;;;;;;5055863;28;20169;-81
2021/08/06 09:12:50;;;;;;;3.57;1.90;;;19.60;93.80;;;;;;5055463;28;20226;-82
2021/08/06 09:15:17;;;;;;;8.57;1.90;;;19.50;94.40;;;;;;5055893;28;20170;-81
2021/08/06 09:17:43;;;;;;;7.53;2.07;;;19.60;94.50;;;;;;5055683;28;20228;-81
2021/08/06 09:20:09;;;;;;;2.97;1.17;;;19.90;93.80;;;;;;5055893;28;20212;-82
2021/08/06 09:22:40;;;;;;;5.37;1.97;;;19.90;92.90;;;;;;5071234;28;20174;-80
2021/08/06 09:25:13;;;;;;;3.37;1.60;;;20.00;92.90;;;;;;5073363;28;20258;-76
2021/08/06 09:27:48;;;;;;;3.13;1.40;;;20.10;92.50;;;;;;5061827;28;20190;-81
2021/08/06 09:30:37;;;;;;;4.97;1.50;;;20.10;91.80;;;;;;5061033;28;20200;-82
2021/08/06 09:33:05;;;;;;;2.77;1.20;;;19.90;94.70;;;;;;5057919;28;20247;-81
2021/08/06 09:35:33;;;;;;;2.23;1.30;;;19.60;94.60;;;;;;5056402;28;20171;-83
2021/08/06 09:38:00;;;;;;;2.57;1.50;;;19.20;98.30;;;;;;5038150;28;20555;-85
2021/08/06 09:40:31;;;;;;;7.13;1.83;;;19.00;99.90;;;;;;5056068;28;20168;-80
2021/08/06 09:43:00;;;;;;;4.53;1.57;;;19.00;99.90;;;;;;5055928;28;20186;-82
2021/08/06 09:45:28;;;;;;;3.97;1.60;;;19.10;99.90;;;;;;5055759;28;20220;-80
2021/08/06 09:47:55;;;;;;;2.67;1.60;;;19.30;99.90;;;;;;5055831;28;20578;-82
2021/08/06 09:50:24;;;;;;;4.50;1.80;;;19.50;99.90;;;;;;5056222;28;20180;-79
2021/08/06 09:52:51;;;;;;;3.53;1.70;;;19.60;99.90;;;;;;5053982;28;20223;-77
2021/08/06 09:55:32;;;;;;;11.30;1.87;;;19.50;99.90;;;;;;5072590;28;20193;-81
2021/08/06 09:58:00;;;;;;;3.23;1.63;;;19.30;99.90;;;;;;5071197;28;20173;-82
2021/08/06 10:00:27;;;;;;;3.90;1.40;;;19.10;99.90;;;;;;5056664;28;20188;-81
2021/08/06 10:02:54;;;;;;;3.20;1.43;;;19.10;99.90;;;;;;5056361;28;20165;-81
2021/08/06 10:05:23;;;;;;;2.60;1.20;;;19.00;99.90;;;;;;5055503;28;20169;-80
2021/08/06 10:07:52;;;;;;;4.40;2.13;;;18.80;99.90;;;;;;5055404;28;20260;-78
2021/08/06 10:10:24;;;;;;;5.27;2.00;;;18.70;99.90;;;;;;5055151;28;20173;-79
2021/08/06 10:12:51;;;;;;;6.70;1.83;;;18.70;99.90;;;;;;5055186;28;20223;-84
2021/08/06 10:15:18;;;;;;;4.73;2.13;;;18.70;99.90;;;;;;5055241;28;20224;-83
2021/08/06 10:17:44;;;;;;;5.27;2.47;;;18.70;99.90;;;;;;5055388;28;20543;-83
2021/08/06 10:20:12;;;;;;;4.73;2.00;;;18.80;99.90;;;;;;5056036;28;20165;-79
2021/08/06 10:22:39;;;;;;;5.37;2.50;;;18.80;99.90;;;;;;5054994;28;20167;-81
2021/08/06 10:25:07;;;;;;;4.57;2.17;;;19.00;99.90;;;;;;5054922;28;20193;-82
2021/08/06 10:27:34;;;;;;;5.87;2.30;;;19.20;99.90;;;;;;5055084;28;20248;-78
2021/08/06 10:30:07;;;;;;;4.80;2.10;;;19.40;99.90;;;;;;5068606;28;20171;-78
2021/08/06 10:32:33;;;;;;;4.53;1.90;;;19.50;99.90;;;;;;5056495;28;20196;-78
2021/08/06 10:35:02;;;;;;;5.33;2.73;;;19.70;99.90;;;;;;5053379;28;20182;-77
2021/08/06 10:37:47;;;;;;;4.60;1.50;;;19.90;99.90;;;;;;5074539;28;20180;-77
2021/08/06 10:40:48;;;;;;;5.13;2.20;;;20.00;99.10;;;;;;5064284;28;20287;-83
2021/08/06 10:43:13;;;;;;;5.07;1.70;;;20.10;97.90;;;;;;5042652;28;20184;-79
2021/08/06 10:45:45;;;;;;;5.20;1.90;;;20.40;96.30;;;;;;5055773;28;20207;-82
2021/08/06 10:48:41;;;;;;;4.20;1.60;;;20.40;95.30;;;;;;5054809;28;20265;-82
2021/08/06 10:51:12;;;;;;;4.77;1.67;;;20.40;93.40;;;;;;5054722;28;20166;-82
2021/08/06 10:53:39;;;;;;;3.30;1.37;;;20.50;91.50;;;;;;5054062;28;20297;-82
2021/08/06 10:56:17;;;;;;;5.63;1.80;;;20.60;90.20;;;;;;5036395;28;20193;-80
2021/08/06 10:58:51;;;;;;;4.47;1.90;;;20.60;90.40;;;;;;5054548;28;20678;-80
2021/08/06 11:01:33;;;;;;;3.50;1.37;;;20.60;90.90;;;;;;5055412;28;20172;-81
2021/08/06 11:04:04;;;;;;;4.70;1.80;;;20.30;94.00;;;;;;5056462;28;20659;-80
2021/08/06 11:06:53;;;;;;;4.93;1.93;;;19.70;99.20;;;;;;5055652;28;20173;-78
2021/08/06 11:12:01;;;;;;;3.33;1.60;;;19.20;99.90;;;;;;5053342;28;20169;-78
2021/08/06 11:14:29;;;;;;;4.53;2.10;;;19.40;99.90;;;;;;5053949;28;20210;-81
2021/08/06 11:17:10;;;;;;;3.77;1.77;;;19.50;99.90;;;;;;5057350;28;20698;-82
2021/08/06 11:20:08;;;;;;;5.23;1.63;;;19.60;99.90;;;;;;5037227;28;20185;-79
2021/08/06 11:22:41;;;;;;;3.93;1.80;;;19.70;99.90;;;;;;5036235;28;20256;-83
2021/08/06 11:25:17;;;;;;;3.73;1.43;;;19.80;99.90;;;;;;5037019;28;20216;-84
2021/08/06 11:27:46;;;;;;;4.50;1.47;;;19.90;98.70;;;;;;5054060;28;20165;-82
2021/08/06 11:30:19;;;;;;;5.20;2.40;;;19.90;97.70;;;;;;5054438;28;20191;-79
2021/08/06 11:32:58;;;;;;;3.23;1.70;;;20.10;98.00;;;;;;5054126;28;20248;-83
2021/08/06 11:35:32;;;;;;;3.00;1.57;;;20.20;95.50;;;;;;5055250;28;20634;-83
2021/08/06 11:38:03;;;;;;;3.20;1.60;;;20.30;93.40;;;;;;5054613;28;20181;-80
2021/08/06 11:40:35;;;;;;;3.30;1.43;;;20.60;93.60;;;;;;5053731;28;20197;-83
2021/08/06 11:43:22;;;;;;;5.00;1.63;;;20.80;92.10;;;;;;5053809;28;20177;-82
2021/08/06 11:45:50;;;;;;;7.27;1.67;;;20.90;91.30;;;;;;5055413;28;20222;-83
2021/08/06 11:48:16;;;;;;;4.70;1.77;;;21.00;90.90;;;;;;5035673;28;20290;-83
2021/08/06 11:50:48;;;;;;;2.83;1.30;;;21.00;90.70;;;;;;5054226;28;20648;-82
2021/08/06 11:53:25;;;;;;;3.87;1.50;;;21.00;88.00;;;;;;5053634;28;20225;-81
2021/08/06 11:55:56;;;;;;;2.03;1.10;;;21.00;86.80;;;;;;5058032;28;20174;-78
2021/08/06 11:58:28;;;;;;;3.73;1.03;;;21.00;85.70;;;;;;5051369;28;20683;-83
2021/08/06 12:00:54;;;;;;;3.87;1.50;;;20.90;85.30;;;;;;5073833;28;20169;-83
2021/08/06 12:03:20;;;;;;;5.57;1.40;;;21.00;83.80;;;;;;5073486;28;20181;-83
2021/08/06 12:05:48;;;;;;;3.33;1.40;;;21.10;77.50;;;;;;5073167;28;20222;-78
2021/08/06 12:08:22;;;;;;;2.30;1.10;;;21.10;77.60;;;;;;5073630;28;20170;-79
2021/08/06 12:11:07;;;;;;;2.47;1.30;;;21.10;76.10;;;;;;5074406;28;20161;-83
2021/08/06 12:13:34;;;;;;;8.23;4.50;;;21.00;80.60;;;;;;5073556;28;20541;-79
2021/08/06 12:16:02;;;;;;;2.50;1.17;;;21.10;82.30;;;;;;5074096;28;20215;-81
2021/08/06 12:18:30;;;;;;;2.63;1.30;;;21.20;81.20;;;;;;5073385;28;20327;-82
2021/08/06 12:20:57;;;;;;;2.23;1.50;;;21.30;80.90;;;;;;5074894;28;20170;-82
2021/08/06 12:23:24;;;;;;;3.03;1.20;;;21.20;80.60;;;;;;5087214;28;20179;-80
2021/08/06 12:26:17;;;;;;;2.47;1.10;;;21.30;84.10;;;;;;5081785;28;20659;-83
2021/08/06 12:28:45;;;;;;;2.33;1.17;;;21.30;82.10;;;;;;5080278;28;20176;-83
2021/08/06 12:31:18;;;;;;;3.07;1.10;;;21.40;82.80;;;;;;5080979;28;20229;-79
2021/08/06 12:33:47;;;;;;;2.93;1.10;;;21.50;80.80;;;;;;5082725;28;20271;-82
2021/08/06 12:36:20;;;;;;;3.73;1.20;;;21.40;76.70;;;;;;5080409;28;20338;-79
2021/08/06 12:38:49;;;;;;;2.33;1.10;;;21.60;77.70;;;;;;5079501;28;20536;-81
2021/08/06 12:41:35;;;;;;;4.30;1.20;;;21.60;77.70;;;;;;5078091;28;20167;-80
2021/08/06 12:44:22;;;;;;;2.77;1.30;;;21.70;78.60;;;;;;5079631;28;20183;-83
2021/08/06 12:47:17;;;;;;;4.07;1.50;;;21.50;79.40;;;;;;5081447;28;20171;-82
2021/08/06 12:50:04;;;;;;;2.87;1.30;;;21.70;79.20;;;;;;5079347;28;20262;-83
2021/08/06 12:52:35;;;;;;;2.70;1.10;;;21.90;76.90;;;;;;5060631;28;20258;-80
2021/08/06 12:55:06;;;;;;;3.60;1.20;;;21.90;75.70;;;;;;5091131;28;20267;-78